sensor_id;sensor_type;location;lat;lon;timestamp;P1;durP1;ratioP1;P2;durP2;ratioP2
6850;SDS011;3464;42.728;23.296;2023-02-15T00:01:36;67.50;;;37.70;;
6850;SDS011;3464;42.728;23.296;2023-02-15T00:04:03;66.17;;;37.43;;
6850;SDS011;3464;42.728;23.296;2023-02-15T00:06:35;71.87;;;38.67;;
6850;SDS011;3464;42.728;23.296;2023-02-15T00:09:32;65.80;;;37.83;;
6850;SDS011;3464;42.728;23.296;2023-02-15T00:12:08;69.10;;;37.53;;
6850;SDS011;3464;42.728;23.296;2023-02-15T00:14:35;66.57;;;37.57;;
6850;SDS011;3464;42.728;23.296;2023-02-15T00:17:02;66.53;;;37.40;;
6850;SDS011;3464;42.728;23.296;2023-02-15T00:19:28;72.87;;;39.13;;
6850;SDS011;3464;42.728;23.296;2023-02-15T00:21:55;66.47;;;38.17;;
6850;SDS011;3464;42.728;23.296;2023-02-15T00:24:22;66.60;;;38.50;;
6850;SDS011;3464;42.728;23.296;2023-02-15T00:26:49;73.53;;;39.10;;
6850;SDS011;3464;42.728;23.296;2023-02-15T00:29:16;65.20;;;38.40;;
6850;SDS011;3464;42.728;23.296;2023-02-15T00:31:43;74.53;;;39.67;;
6850;SDS011;3464;42.728;23.296;2023-02-15T00:34:13;73.23;;;39.87;;
6850;SDS011;3464;42.728;23.296;2023-02-15T00:36:39;67.47;;;38.57;;
6850;SDS011;3464;42.728;23.296;2023-02-15T00:39:08;66.83;;;37.70;;
6850;SDS011;3464;42.728;23.296;2023-02-15T00:41:35;65.47;;;38.23;;
6850;SDS011;3464;42.728;23.296;2023-02-15T00:44:06;65.10;;;36.73;;
6850;SDS011;3464;42.728;23.296;2023-02-15T00:46:33;65.00;;;37.97;;
6850;SDS011;3464;42.728;23.296;2023-02-15T00:49:00;69.43;;;39.87;;
6850;SDS011;3464;42.728;23.296;2023-02-15T00:51:27;65.80;;;37.53;;
6850;SDS011;3464;42.728;23.296;2023-02-15T00:53:54;65.97;;;37.20;;
6850;SDS011;3464;42.728;23.296;2023-02-15T00:56:21;70.73;;;39.77;;
6850;SDS011;3464;42.728;23.296;2023-02-15T00:58:48;70.03;;;39.97;;
6850;SDS011;3464;42.728;23.296;2023-02-15T01:01:16;69.53;;;38.80;;
6850;SDS011;3464;42.728;23.296;2023-02-15T01:03:42;70.40;;;37.97;;
6850;SDS011;3464;42.728;23.296;2023-02-15T01:06:08;72.10;;;37.80;;
6850;SDS011;3464;42.728;23.296;2023-02-15T01:08:35;77.27;;;40.30;;
6850;SDS011;3464;42.728;23.296;2023-02-15T01:11:11;62.90;;;35.53;;
6850;SDS011;3464;42.728;23.296;2023-02-15T01:13:38;70.27;;;38.73;;
6850;SDS011;3464;42.728;23.296;2023-02-15T01:16:04;66.50;;;37.30;;
6850;SDS011;3464;42.728;23.296;2023-02-15T01:18:32;70.03;;;37.87;;
6850;SDS011;3464;42.728;23.296;2023-02-15T01:20:58;68.07;;;37.97;;
6850;SDS011;3464;42.728;23.296;2023-02-15T01:23:26;67.07;;;38.30;;
6850;SDS011;3464;42.728;23.296;2023-02-15T01:25:52;68.40;;;38.40;;
6850;SDS011;3464;42.728;23.296;2023-02-15T01:28:20;69.33;;;38.43;;
6850;SDS011;3464;42.728;23.296;2023-02-15T01:30:47;68.17;;;38.77;;
6850;SDS011;3464;42.728;23.296;2023-02-15T01:33:13;63.90;;;36.63;;
6850;SDS011;3464;42.728;23.296;2023-02-15T01:35:40;64.77;;;37.50;;
6850;SDS011;3464;42.728;23.296;2023-02-15T01:38:07;61.23;;;35.57;;
6850;SDS011;3464;42.728;23.296;2023-02-15T01:40:33;67.33;;;36.43;;
6850;SDS011;3464;42.728;23.296;2023-02-15T01:43:01;64.23;;;37.20;;
6850;SDS011;3464;42.728;23.296;2023-02-15T01:45:29;61.43;;;34.10;;
6850;SDS011;3464;42.728;23.296;2023-02-15T01:50:49;61.60;;;34.90;;
6850;SDS011;3464;42.728;23.296;2023-02-15T01:53:18;64.70;;;36.40;;
6850;SDS011;3464;42.728;23.296;2023-02-15T01:55:49;67.33;;;37.60;;
6850;SDS011;3464;42.728;23.296;2023-02-15T01:58:14;64.20;;;36.50;;
6850;SDS011;3464;42.728;23.296;2023-02-15T02:00:45;65.63;;;36.20;;
6850;SDS011;3464;42.728;23.296;2023-02-15T02:03:12;63.57;;;36.47;;
6850;SDS011;3464;42.728;23.296;2023-02-15T02:05:39;62.80;;;36.63;;
6850;SDS011;3464;42.728;23.296;2023-02-15T02:08:06;61.60;;;36.67;;
6850;SDS011;3464;42.728;23.296;2023-02-15T02:10:33;63.27;;;36.30;;
6850;SDS011;3464;42.728;23.296;2023-02-15T02:13:02;65.77;;;37.90;;
6850;SDS011;3464;42.728;23.296;2023-02-15T02:15:38;62.90;;;36.07;;
6850;SDS011;3464;42.728;23.296;2023-02-15T02:18:12;57.77;;;34.53;;
6850;SDS011;3464;42.728;23.296;2023-02-15T02:23:28;60.77;;;33.73;;
6850;SDS011;3464;42.728;23.296;2023-02-15T02:31:59;63.90;;;36.27;;
6850;SDS011;3464;42.728;23.296;2023-02-15T02:34:29;63.17;;;35.47;;
6850;SDS011;3464;42.728;23.296;2023-02-15T02:37:02;58.10;;;34.50;;
6850;SDS011;3464;42.728;23.296;2023-02-15T02:42:19;60.73;;;35.10;;
6850;SDS011;3464;42.728;23.296;2023-02-15T02:44:47;61.37;;;35.07;;
6850;SDS011;3464;42.728;23.296;2023-02-15T02:49:51;62.10;;;35.70;;
6850;SDS011;3464;42.728;23.296;2023-02-15T02:54:58;63.10;;;34.87;;
6850;SDS011;3464;42.728;23.296;2023-02-15T02:57:25;59.57;;;33.47;;
6850;SDS011;3464;42.728;23.296;2023-02-15T02:59:51;64.73;;;35.97;;
6850;SDS011;3464;42.728;23.296;2023-02-15T03:02:21;67.93;;;36.50;;
6850;SDS011;3464;42.728;23.296;2023-02-15T03:04:50;58.67;;;34.37;;
6850;SDS011;3464;42.728;23.296;2023-02-15T03:07:16;59.20;;;33.00;;
6850;SDS011;3464;42.728;23.296;2023-02-15T03:09:42;57.43;;;33.30;;
6850;SDS011;3464;42.728;23.296;2023-02-15T03:12:13;56.63;;;32.40;;
6850;SDS011;3464;42.728;23.296;2023-02-15T03:14:38;55.00;;;32.37;;
6850;SDS011;3464;42.728;23.296;2023-02-15T03:17:05;57.87;;;32.07;;
6850;SDS011;3464;42.728;23.296;2023-02-15T03:19:32;53.40;;;30.33;;
6850;SDS011;3464;42.728;23.296;2023-02-15T03:22:00;54.13;;;31.70;;
6850;SDS011;3464;42.728;23.296;2023-02-15T03:24:34;54.23;;;31.80;;
6850;SDS011;3464;42.728;23.296;2023-02-15T03:27:02;53.77;;;30.10;;
6850;SDS011;3464;42.728;23.296;2023-02-15T03:29:27;53.93;;;29.53;;
6850;SDS011;3464;42.728;23.296;2023-02-15T03:31:58;52.43;;;29.70;;
6850;SDS011;3464;42.728;23.296;2023-02-15T03:34:22;55.10;;;31.57;;
6850;SDS011;3464;42.728;23.296;2023-02-15T03:36:50;52.60;;;28.80;;
6850;SDS011;3464;42.728;23.296;2023-02-15T03:39:19;53.30;;;30.00;;
6850;SDS011;3464;42.728;23.296;2023-02-15T03:41:49;50.17;;;28.60;;
6850;SDS011;3464;42.728;23.296;2023-02-15T03:44:21;52.33;;;29.27;;
6850;SDS011;3464;42.728;23.296;2023-02-15T03:47:02;54.47;;;29.87;;
6850;SDS011;3464;42.728;23.296;2023-02-15T03:49:42;51.00;;;28.70;;
6850;SDS011;3464;42.728;23.296;2023-02-15T03:52:08;52.40;;;29.73;;
6850;SDS011;3464;42.728;23.296;2023-02-15T03:54:35;53.50;;;28.40;;
6850;SDS011;3464;42.728;23.296;2023-02-15T03:57:08;52.77;;;29.00;;
6850;SDS011;3464;42.728;23.296;2023-02-15T03:59:42;50.93;;;28.77;;
6850;SDS011;3464;42.728;23.296;2023-02-15T04:02:19;58.30;;;30.47;;
6850;SDS011;3464;42.728;23.296;2023-02-15T04:04:43;50.53;;;27.73;;
6850;SDS011;3464;42.728;23.296;2023-02-15T04:07:09;54.47;;;28.87;;
6850;SDS011;3464;42.728;23.296;2023-02-15T04:09:35;53.73;;;28.77;;
6850;SDS011;3464;42.728;23.296;2023-02-15T04:12:07;48.87;;;28.10;;
6850;SDS011;3464;42.728;23.296;2023-02-15T04:14:35;50.90;;;29.17;;
6850;SDS011;3464;42.728;23.296;2023-02-15T04:17:07;50.50;;;27.87;;
6850;SDS011;3464;42.728;23.296;2023-02-15T04:19:33;51.07;;;28.90;;
6850;SDS011;3464;42.728;23.296;2023-02-15T04:22:06;47.67;;;27.30;;
6850;SDS011;3464;42.728;23.296;2023-02-15T04:24:38;59.27;;;27.90;;
6850;SDS011;3464;42.728;23.296;2023-02-15T04:27:11;50.13;;;28.30;;
6850;SDS011;3464;42.728;23.296;2023-02-15T04:29:37;52.70;;;28.67;;
6850;SDS011;3464;42.728;23.296;2023-02-15T04:32:04;53.00;;;30.17;;
6850;SDS011;3464;42.728;23.296;2023-02-15T04:34:30;50.97;;;28.40;;
6850;SDS011;3464;42.728;23.296;2023-02-15T04:36:57;53.90;;;29.53;;
6850;SDS011;3464;42.728;23.296;2023-02-15T04:39:24;52.03;;;28.50;;
6850;SDS011;3464;42.728;23.296;2023-02-15T04:41:51;52.47;;;30.20;;
6850;SDS011;3464;42.728;23.296;2023-02-15T04:44:17;56.13;;;30.07;;
6850;SDS011;3464;42.728;23.296;2023-02-15T04:46:44;54.43;;;29.60;;
6850;SDS011;3464;42.728;23.296;2023-02-15T04:49:12;54.53;;;30.47;;
6850;SDS011;3464;42.728;23.296;2023-02-15T04:51:38;50.33;;;28.60;;
6850;SDS011;3464;42.728;23.296;2023-02-15T04:54:07;49.53;;;28.53;;
6850;SDS011;3464;42.728;23.296;2023-02-15T04:56:34;51.13;;;28.60;;
6850;SDS011;3464;42.728;23.296;2023-02-15T04:59:01;49.93;;;28.10;;
6850;SDS011;3464;42.728;23.296;2023-02-15T05:01:29;56.20;;;30.13;;
6850;SDS011;3464;42.728;23.296;2023-02-15T05:03:55;52.23;;;29.23;;
6850;SDS011;3464;42.728;23.296;2023-02-15T05:06:22;50.47;;;28.27;;
6850;SDS011;3464;42.728;23.296;2023-02-15T05:08:49;54.13;;;29.27;;
6850;SDS011;3464;42.728;23.296;2023-02-15T05:11:15;53.30;;;29.53;;
6850;SDS011;3464;42.728;23.296;2023-02-15T05:13:42;56.13;;;29.77;;
6850;SDS011;3464;42.728;23.296;2023-02-15T05:16:11;55.23;;;30.37;;
6850;SDS011;3464;42.728;23.296;2023-02-15T05:18:37;53.20;;;29.23;;
6850;SDS011;3464;42.728;23.296;2023-02-15T05:21:05;49.77;;;28.67;;
6850;SDS011;3464;42.728;23.296;2023-02-15T05:23:31;53.13;;;28.90;;
6850;SDS011;3464;42.728;23.296;2023-02-15T05:26:00;52.03;;;28.27;;
6850;SDS011;3464;42.728;23.296;2023-02-15T05:28:32;53.40;;;29.10;;
6850;SDS011;3464;42.728;23.296;2023-02-15T05:31:03;53.03;;;29.90;;
6850;SDS011;3464;42.728;23.296;2023-02-15T05:33:30;52.30;;;27.87;;
6850;SDS011;3464;42.728;23.296;2023-02-15T05:35:59;54.70;;;29.20;;
6850;SDS011;3464;42.728;23.296;2023-02-15T05:38:27;48.37;;;26.80;;
6850;SDS011;3464;42.728;23.296;2023-02-15T05:40:53;51.13;;;27.00;;
6850;SDS011;3464;42.728;23.296;2023-02-15T05:43:24;49.07;;;26.90;;
6850;SDS011;3464;42.728;23.296;2023-02-15T05:45:51;54.10;;;28.50;;
6850;SDS011;3464;42.728;23.296;2023-02-15T05:48:19;50.07;;;28.80;;
6850;SDS011;3464;42.728;23.296;2023-02-15T05:53:33;51.97;;;28.70;;
6850;SDS011;3464;42.728;23.296;2023-02-15T05:56:05;52.43;;;28.20;;
6850;SDS011;3464;42.728;23.296;2023-02-15T05:58:34;54.37;;;29.33;;
6850;SDS011;3464;42.728;23.296;2023-02-15T06:03:46;48.30;;;26.50;;
6850;SDS011;3464;42.728;23.296;2023-02-15T06:06:14;51.50;;;26.33;;
6850;SDS011;3464;42.728;23.296;2023-02-15T06:08:42;50.73;;;27.50;;
6850;SDS011;3464;42.728;23.296;2023-02-15T06:11:10;50.47;;;26.63;;
6850;SDS011;3464;42.728;23.296;2023-02-15T06:13:39;49.63;;;26.07;;
6850;SDS011;3464;42.728;23.296;2023-02-15T06:16:08;47.60;;;26.07;;
6850;SDS011;3464;42.728;23.296;2023-02-15T06:18:35;49.47;;;26.23;;
6850;SDS011;3464;42.728;23.296;2023-02-15T06:21:09;51.10;;;27.47;;
6850;SDS011;3464;42.728;23.296;2023-02-15T06:23:36;50.07;;;26.17;;
6850;SDS011;3464;42.728;23.296;2023-02-15T06:26:03;51.53;;;26.60;;
6850;SDS011;3464;42.728;23.296;2023-02-15T06:28:30;51.17;;;26.50;;
6850;SDS011;3464;42.728;23.296;2023-02-15T06:31:05;47.50;;;25.17;;
6850;SDS011;3464;42.728;23.296;2023-02-15T06:33:39;49.53;;;26.50;;
6850;SDS011;3464;42.728;23.296;2023-02-15T06:36:06;47.77;;;25.07;;
6850;SDS011;3464;42.728;23.296;2023-02-15T06:38:33;46.93;;;24.20;;
6850;SDS011;3464;42.728;23.296;2023-02-15T06:41:00;45.07;;;23.33;;
6850;SDS011;3464;42.728;23.296;2023-02-15T06:43:26;47.03;;;24.73;;
6850;SDS011;3464;42.728;23.296;2023-02-15T06:45:54;48.37;;;26.10;;
6850;SDS011;3464;42.728;23.296;2023-02-15T06:48:21;47.93;;;25.83;;
6850;SDS011;3464;42.728;23.296;2023-02-15T06:50:50;47.40;;;25.70;;
6850;SDS011;3464;42.728;23.296;2023-02-15T06:53:17;44.10;;;24.67;;
6850;SDS011;3464;42.728;23.296;2023-02-15T06:55:43;45.57;;;24.60;;
6850;SDS011;3464;42.728;23.296;2023-02-15T06:58:12;43.83;;;25.50;;
6850;SDS011;3464;42.728;23.296;2023-02-15T07:00:39;47.07;;;23.87;;
6850;SDS011;3464;42.728;23.296;2023-02-15T07:03:07;44.43;;;23.77;;
6850;SDS011;3464;42.728;23.296;2023-02-15T07:05:39;43.57;;;23.60;;
6850;SDS011;3464;42.728;23.296;2023-02-15T07:08:06;43.60;;;23.30;;
6850;SDS011;3464;42.728;23.296;2023-02-15T07:10:38;40.63;;;21.70;;
6850;SDS011;3464;42.728;23.296;2023-02-15T07:13:07;41.87;;;22.00;;
6850;SDS011;3464;42.728;23.296;2023-02-15T07:15:35;39.50;;;21.90;;
6850;SDS011;3464;42.728;23.296;2023-02-15T07:18:02;42.50;;;21.40;;
6850;SDS011;3464;42.728;23.296;2023-02-15T07:20:31;39.90;;;21.47;;
6850;SDS011;3464;42.728;23.296;2023-02-15T07:23:00;42.53;;;21.83;;
6850;SDS011;3464;42.728;23.296;2023-02-15T07:25:27;45.30;;;23.23;;
6850;SDS011;3464;42.728;23.296;2023-02-15T07:27:58;40.40;;;21.40;;
6850;SDS011;3464;42.728;23.296;2023-02-15T07:30:24;41.90;;;20.97;;
6850;SDS011;3464;42.728;23.296;2023-02-15T07:32:55;38.87;;;20.60;;
6850;SDS011;3464;42.728;23.296;2023-02-15T07:35:30;46.37;;;21.97;;
6850;SDS011;3464;42.728;23.296;2023-02-15T07:37:57;42.00;;;21.77;;
6850;SDS011;3464;42.728;23.296;2023-02-15T07:40:23;36.40;;;20.23;;
6850;SDS011;3464;42.728;23.296;2023-02-15T07:42:51;39.97;;;20.50;;
6850;SDS011;3464;42.728;23.296;2023-02-15T07:45:19;44.03;;;21.87;;
6850;SDS011;3464;42.728;23.296;2023-02-15T07:47:53;41.87;;;22.57;;
6850;SDS011;3464;42.728;23.296;2023-02-15T07:50:24;38.23;;;20.10;;
6850;SDS011;3464;42.728;23.296;2023-02-15T07:52:51;42.03;;;20.80;;
6850;SDS011;3464;42.728;23.296;2023-02-15T07:55:19;40.30;;;21.40;;
6850;SDS011;3464;42.728;23.296;2023-02-15T07:57:51;42.30;;;22.60;;
6850;SDS011;3464;42.728;23.296;2023-02-15T08:00:18;52.93;;;20.50;;
6850;SDS011;3464;42.728;23.296;2023-02-15T08:02:48;36.80;;;20.33;;
6850;SDS011;3464;42.728;23.296;2023-02-15T08:05:14;40.20;;;19.70;;
6850;SDS011;3464;42.728;23.296;2023-02-15T08:07:41;39.63;;;21.50;;
6850;SDS011;3464;42.728;23.296;2023-02-15T08:10:07;42.40;;;21.20;;
6850;SDS011;3464;42.728;23.296;2023-02-15T08:12:36;39.93;;;22.37;;
6850;SDS011;3464;42.728;23.296;2023-02-15T08:15:02;41.30;;;22.60;;
6850;SDS011;3464;42.728;23.296;2023-02-15T08:17:29;44.80;;;22.57;;
6850;SDS011;3464;42.728;23.296;2023-02-15T08:19:56;43.43;;;23.93;;
6850;SDS011;3464;42.728;23.296;2023-02-15T08:22:25;41.50;;;22.17;;
6850;SDS011;3464;42.728;23.296;2023-02-15T08:25:01;43.10;;;22.67;;
6850;SDS011;3464;42.728;23.296;2023-02-15T08:27:50;39.60;;;21.27;;
6850;SDS011;3464;42.728;23.296;2023-02-15T08:37:21;34.60;;;19.40;;
6850;SDS011;3464;42.728;23.296;2023-02-15T08:39:53;38.20;;;19.93;;
6850;SDS011;3464;42.728;23.296;2023-02-15T08:42:20;76.33;;;21.20;;
6850;SDS011;3464;42.728;23.296;2023-02-15T08:44:55;38.70;;;18.73;;
6850;SDS011;3464;42.728;23.296;2023-02-15T08:52:55;32.30;;;17.10;;
6850;SDS011;3464;42.728;23.296;2023-02-15T08:55:25;35.20;;;16.77;;
6850;SDS011;3464;42.728;23.296;2023-02-15T08:57:54;32.07;;;16.70;;
6850;SDS011;3464;42.728;23.296;2023-02-15T09:00:26;36.23;;;17.63;;
6850;SDS011;3464;42.728;23.296;2023-02-15T09:03:00;32.47;;;16.87;;
6850;SDS011;3464;42.728;23.296;2023-02-15T09:05:29;31.90;;;18.03;;
6850;SDS011;3464;42.728;23.296;2023-02-15T09:07:58;33.57;;;17.63;;
6850;SDS011;3464;42.728;23.296;2023-02-15T09:10:34;36.20;;;18.43;;
6850;SDS011;3464;42.728;23.296;2023-02-15T09:13:11;30.87;;;16.07;;
6850;SDS011;3464;42.728;23.296;2023-02-15T09:18:27;35.40;;;18.20;;
6850;SDS011;3464;42.728;23.296;2023-02-15T09:20:57;35.10;;;18.23;;
6850;SDS011;3464;42.728;23.296;2023-02-15T09:29:07;34.43;;;17.70;;
6850;SDS011;3464;42.728;23.296;2023-02-15T09:31:39;33.17;;;18.07;;
6850;SDS011;3464;42.728;23.296;2023-02-15T09:34:14;34.67;;;17.77;;
6850;SDS011;3464;42.728;23.296;2023-02-15T09:36:46;34.67;;;17.90;;
6850;SDS011;3464;42.728;23.296;2023-02-15T09:39:21;35.23;;;17.77;;
6850;SDS011;3464;42.728;23.296;2023-02-15T09:41:59;33.57;;;17.90;;
6850;SDS011;3464;42.728;23.296;2023-02-15T09:44:56;39.53;;;18.10;;
6850;SDS011;3464;42.728;23.296;2023-02-15T10:09:02;32.23;;;17.80;;
6850;SDS011;3464;42.728;23.296;2023-02-15T10:11:41;32.00;;;17.60;;
6850;SDS011;3464;42.728;23.296;2023-02-15T10:14:23;30.83;;;16.83;;
6850;SDS011;3464;42.728;23.296;2023-02-15T10:17:13;35.73;;;18.07;;
6850;SDS011;3464;42.728;23.296;2023-02-15T10:31:17;34.83;;;18.57;;
6850;SDS011;3464;42.728;23.296;2023-02-15T10:33:46;37.47;;;18.23;;
6850;SDS011;3464;42.728;23.296;2023-02-15T10:39:16;35.00;;;19.70;;
6850;SDS011;3464;42.728;23.296;2023-02-15T10:42:16;36.63;;;19.63;;
6850;SDS011;3464;42.728;23.296;2023-02-15T10:53:17;37.33;;;20.10;;
6850;SDS011;3464;42.728;23.296;2023-02-15T10:58:45;41.20;;;22.40;;
6850;SDS011;3464;42.728;23.296;2023-02-15T11:01:18;41.93;;;22.27;;
6850;SDS011;3464;42.728;23.296;2023-02-15T11:03:52;39.23;;;20.90;;
6850;SDS011;3464;42.728;23.296;2023-02-15T11:06:34;39.50;;;21.33;;
6850;SDS011;3464;42.728;23.296;2023-02-15T11:09:05;40.80;;;22.47;;
6850;SDS011;3464;42.728;23.296;2023-02-15T11:11:41;36.73;;;20.50;;
6850;SDS011;3464;42.728;23.296;2023-02-15T11:14:17;46.77;;;23.83;;
6850;SDS011;3464;42.728;23.296;2023-02-15T11:16:55;39.40;;;21.37;;
6850;SDS011;3464;42.728;23.296;2023-02-15T11:19:28;42.10;;;22.13;;
6850;SDS011;3464;42.728;23.296;2023-02-15T11:21:53;42.70;;;22.30;;
6850;SDS011;3464;42.728;23.296;2023-02-15T11:24:20;39.30;;;21.70;;
6850;SDS011;3464;42.728;23.296;2023-02-15T11:26:53;49.00;;;23.03;;
6850;SDS011;3464;42.728;23.296;2023-02-15T11:29:29;42.23;;;21.63;;
6850;SDS011;3464;42.728;23.296;2023-02-15T11:32:14;41.83;;;23.57;;
6850;SDS011;3464;42.728;23.296;2023-02-15T11:34:48;41.37;;;21.57;;
6850;SDS011;3464;42.728;23.296;2023-02-15T11:37:29;41.77;;;22.00;;
6850;SDS011;3464;42.728;23.296;2023-02-15T11:39:54;43.87;;;24.30;;
6850;SDS011;3464;42.728;23.296;2023-02-15T11:42:21;46.43;;;24.00;;
6850;SDS011;3464;42.728;23.296;2023-02-15T11:44:54;40.40;;;22.33;;
6850;SDS011;3464;42.728;23.296;2023-02-15T11:47:22;47.73;;;24.00;;
6850;SDS011;3464;42.728;23.296;2023-02-15T11:49:49;40.60;;;21.93;;
6850;SDS011;3464;42.728;23.296;2023-02-15T11:52:16;37.43;;;20.03;;
6850;SDS011;3464;42.728;23.296;2023-02-15T11:54:45;38.50;;;21.87;;
6850;SDS011;3464;42.728;23.296;2023-02-15T11:59:56;38.87;;;23.07;;
6850;SDS011;3464;42.728;23.296;2023-02-15T12:02:23;40.70;;;20.77;;
6850;SDS011;3464;42.728;23.296;2023-02-15T12:04:52;37.63;;;21.20;;
6850;SDS011;3464;42.728;23.296;2023-02-15T12:07:23;37.13;;;20.80;;
6850;SDS011;3464;42.728;23.296;2023-02-15T12:09:53;40.70;;;21.60;;
6850;SDS011;3464;42.728;23.296;2023-02-15T12:12:32;42.63;;;21.63;;
6850;SDS011;3464;42.728;23.296;2023-02-15T12:15:04;38.43;;;21.83;;
6850;SDS011;3464;42.728;23.296;2023-02-15T12:17:52;42.60;;;22.13;;
6850;SDS011;3464;42.728;23.296;2023-02-15T12:20:21;41.70;;;22.20;;
6850;SDS011;3464;42.728;23.296;2023-02-15T12:22:49;38.33;;;20.90;;
6850;SDS011;3464;42.728;23.296;2023-02-15T12:25:26;41.20;;;22.00;;
6850;SDS011;3464;42.728;23.296;2023-02-15T12:27:53;42.07;;;22.17;;
6850;SDS011;3464;42.728;23.296;2023-02-15T12:30:22;40.67;;;22.23;;
6850;SDS011;3464;42.728;23.296;2023-02-15T12:32:52;39.00;;;21.70;;
6850;SDS011;3464;42.728;23.296;2023-02-15T12:35:30;41.90;;;23.00;;
6850;SDS011;3464;42.728;23.296;2023-02-15T12:38:02;38.67;;;20.97;;
6850;SDS011;3464;42.728;23.296;2023-02-15T12:40:27;40.60;;;21.37;;
6850;SDS011;3464;42.728;23.296;2023-02-15T12:42:54;36.00;;;19.53;;
6850;SDS011;3464;42.728;23.296;2023-02-15T12:45:24;36.00;;;19.03;;
6850;SDS011;3464;42.728;23.296;2023-02-15T12:48:07;42.57;;;21.13;;
6850;SDS011;3464;42.728;23.296;2023-02-15T12:50:26;41.60;;;22.73;;
6850;SDS011;3464;42.728;23.296;2023-02-15T12:53:05;36.40;;;20.60;;
6850;SDS011;3464;42.728;23.296;2023-02-15T12:55:21;41.63;;;22.13;;
6850;SDS011;3464;42.728;23.296;2023-02-15T12:57:48;41.33;;;20.63;;
6850;SDS011;3464;42.728;23.296;2023-02-15T13:00:25;38.87;;;20.10;;
6850;SDS011;3464;42.728;23.296;2023-02-15T13:03:01;41.33;;;22.43;;
6850;SDS011;3464;42.728;23.296;2023-02-15T13:05:34;46.13;;;22.93;;
6850;SDS011;3464;42.728;23.296;2023-02-15T13:08:04;42.33;;;20.40;;
6850;SDS011;3464;42.728;23.296;2023-02-15T13:10:54;42.90;;;22.10;;
6850;SDS011;3464;42.728;23.296;2023-02-15T13:13:21;42.50;;;21.00;;
6850;SDS011;3464;42.728;23.296;2023-02-15T13:15:48;37.83;;;21.00;;
6850;SDS011;3464;42.728;23.296;2023-02-15T13:18:16;35.53;;;19.53;;
6850;SDS011;3464;42.728;23.296;2023-02-15T13:20:43;41.80;;;20.20;;
6850;SDS011;3464;42.728;23.296;2023-02-15T13:23:27;44.57;;;21.83;;
6850;SDS011;3464;42.728;23.296;2023-02-15T13:25:53;38.40;;;20.43;;
6850;SDS011;3464;42.728;23.296;2023-02-15T13:28:21;42.67;;;22.00;;
6850;SDS011;3464;42.728;23.296;2023-02-15T13:30:47;38.93;;;21.20;;
6850;SDS011;3464;42.728;23.296;2023-02-15T13:33:21;40.50;;;21.47;;
6850;SDS011;3464;42.728;23.296;2023-02-15T13:35:52;38.87;;;21.27;;
6850;SDS011;3464;42.728;23.296;2023-02-15T13:38:39;36.63;;;20.17;;
6850;SDS011;3464;42.728;23.296;2023-02-15T13:41:11;39.17;;;22.10;;
6850;SDS011;3464;42.728;23.296;2023-02-15T13:43:45;39.63;;;20.93;;
6850;SDS011;3464;42.728;23.296;2023-02-15T13:49:31;37.83;;;21.10;;
6850;SDS011;3464;42.728;23.296;2023-02-15T13:59:02;39.90;;;22.60;;
6850;SDS011;3464;42.728;23.296;2023-02-15T14:04:25;42.80;;;19.70;;
6850;SDS011;3464;42.728;23.296;2023-02-15T14:07:17;38.80;;;21.53;;
6850;SDS011;3464;42.728;23.296;2023-02-15T14:10:18;39.50;;;20.47;;
6850;SDS011;3464;42.728;23.296;2023-02-15T14:15:34;37.20;;;20.67;;
6850;SDS011;3464;42.728;23.296;2023-02-15T14:18:02;37.20;;;20.00;;
6850;SDS011;3464;42.728;23.296;2023-02-15T14:21:08;36.33;;;20.67;;
6850;SDS011;3464;42.728;23.296;2023-02-15T14:23:36;38.90;;;22.17;;
6850;SDS011;3464;42.728;23.296;2023-02-15T14:26:03;40.47;;;21.93;;
6850;SDS011;3464;42.728;23.296;2023-02-15T14:28:37;40.27;;;22.43;;
6850;SDS011;3464;42.728;23.296;2023-02-15T14:31:07;40.37;;;22.03;;
6850;SDS011;3464;42.728;23.296;2023-02-15T14:33:37;38.80;;;21.70;;
6850;SDS011;3464;42.728;23.296;2023-02-15T14:36:06;44.33;;;22.20;;
6850;SDS011;3464;42.728;23.296;2023-02-15T14:41:17;41.30;;;21.60;;
6850;SDS011;3464;42.728;23.296;2023-02-15T14:43:59;44.20;;;20.80;;
6850;SDS011;3464;42.728;23.296;2023-02-15T14:46:27;38.90;;;20.43;;
6850;SDS011;3464;42.728;23.296;2023-02-15T14:49:08;40.53;;;20.97;;
6850;SDS011;3464;42.728;23.296;2023-02-15T14:51:53;42.13;;;22.27;;
6850;SDS011;3464;42.728;23.296;2023-02-15T14:57:23;45.40;;;23.40;;
6850;SDS011;3464;42.728;23.296;2023-02-15T14:59:54;38.93;;;22.10;;
6850;SDS011;3464;42.728;23.296;2023-02-15T15:02:26;46.10;;;24.50;;
6850;SDS011;3464;42.728;23.296;2023-02-15T15:05:01;44.37;;;24.97;;
6850;SDS011;3464;42.728;23.296;2023-02-15T15:07:37;44.47;;;23.97;;
6850;SDS011;3464;42.728;23.296;2023-02-15T15:10:07;42.27;;;24.07;;
6850;SDS011;3464;42.728;23.296;2023-02-15T15:12:38;44.10;;;25.33;;
6850;SDS011;3464;42.728;23.296;2023-02-15T15:15:09;43.60;;;23.27;;
6850;SDS011;3464;42.728;23.296;2023-02-15T15:25:56;46.50;;;25.70;;
6850;SDS011;3464;42.728;23.296;2023-02-15T15:31:18;48.47;;;26.53;;
6850;SDS011;3464;42.728;23.296;2023-02-15T15:36:35;48.10;;;26.00;;
6850;SDS011;3464;42.728;23.296;2023-02-15T15:39:20;51.60;;;27.20;;
6850;SDS011;3464;42.728;23.296;2023-02-15T15:45:46;44.43;;;25.80;;
6850;SDS011;3464;42.728;23.296;2023-02-15T15:47:24;49.60;;;25.67;;
6850;SDS011;3464;42.728;23.296;2023-02-15T15:50:10;49.43;;;26.00;;
6850;SDS011;3464;42.728;23.296;2023-02-15T15:52:30;48.17;;;26.30;;
6850;SDS011;3464;42.728;23.296;2023-02-15T15:55:03;47.43;;;26.20;;
6850;SDS011;3464;42.728;23.296;2023-02-15T15:57:27;52.13;;;26.67;;
6850;SDS011;3464;42.728;23.296;2023-02-15T15:59:52;49.97;;;27.13;;
6850;SDS011;3464;42.728;23.296;2023-02-15T16:02:19;55.10;;;27.70;;
6850;SDS011;3464;42.728;23.296;2023-02-15T16:04:45;50.50;;;27.30;;
6850;SDS011;3464;42.728;23.296;2023-02-15T16:07:20;49.27;;;27.80;;
6850;SDS011;3464;42.728;23.296;2023-02-15T16:09:53;52.87;;;28.37;;
6850;SDS011;3464;42.728;23.296;2023-02-15T16:12:15;46.60;;;27.10;;
6850;SDS011;3464;42.728;23.296;2023-02-15T16:14:41;50.37;;;27.87;;
6850;SDS011;3464;42.728;23.296;2023-02-15T16:17:18;53.97;;;28.20;;
6850;SDS011;3464;42.728;23.296;2023-02-15T16:20:11;47.67;;;28.70;;
6850;SDS011;3464;42.728;23.296;2023-02-15T16:22:34;48.27;;;28.27;;
6850;SDS011;3464;42.728;23.296;2023-02-15T16:27:53;47.77;;;28.03;;
6850;SDS011;3464;42.728;23.296;2023-02-15T16:30:23;46.97;;;28.13;;
6850;SDS011;3464;42.728;23.296;2023-02-15T16:33:03;52.00;;;28.47;;
6850;SDS011;3464;42.728;23.296;2023-02-15T16:35:30;55.10;;;31.70;;
6850;SDS011;3464;42.728;23.296;2023-02-15T16:37:56;63.40;;;32.63;;
6850;SDS011;3464;42.728;23.296;2023-02-15T16:43:41;61.13;;;34.10;;
6850;SDS011;3464;42.728;23.296;2023-02-15T16:46:11;56.83;;;33.13;;
6850;SDS011;3464;42.728;23.296;2023-02-15T16:48:41;58.27;;;32.03;;
6850;SDS011;3464;42.728;23.296;2023-02-15T16:51:07;61.30;;;33.93;;
6850;SDS011;3464;42.728;23.296;2023-02-15T16:53:36;65.90;;;33.47;;
6850;SDS011;3464;42.728;23.296;2023-02-15T16:56:11;59.73;;;33.20;;
6850;SDS011;3464;42.728;23.296;2023-02-15T16:58:50;58.67;;;31.97;;
6850;SDS011;3464;42.728;23.296;2023-02-15T17:01:20;58.00;;;31.53;;
6850;SDS011;3464;42.728;23.296;2023-02-15T17:03:48;54.97;;;32.70;;
6850;SDS011;3464;42.728;23.296;2023-02-15T17:06:20;53.67;;;30.87;;
6850;SDS011;3464;42.728;23.296;2023-02-15T17:08:48;62.00;;;32.50;;
6850;SDS011;3464;42.728;23.296;2023-02-15T17:11:16;55.77;;;30.30;;
6850;SDS011;3464;42.728;23.296;2023-02-15T17:16:43;51.77;;;30.50;;